Time;durP1;ratioP1;P1;durP2;ratioP2;P2;SDS_P1;SDS_P2;PMS_P1;PMS_P2;Temp;Humidity;BMP_temperature;BMP_pressure;BME280_temperature;BME280_humidity;BME280_pressure;Samples;Min_cycle;Max_cycle;Signal;HPM_P1;HPM_P2
2023/05/29 00:01:18;;;;;;;;;15.75;11.75;;;;;;;;6374802;22;8739;-69
2023/05/29 00:03:43;;;;;;;;;15.00;11.75;;;;;;;;6375102;22;8752;-70
2023/05/29 00:06:09;;;;;;;;;10.75;7.75;;;;;;;;6376112;22;8744;-70
2023/05/29 00:08:34;;;;;;;;;14.25;12.50;;;;;;;;6376284;22;8769;-69
2023/05/29 00:10:59;;;;;;;;;11.25;11.00;;;;;;;;6376790;22;8781;-70
2023/05/29 00:13:24;;;;;;;;;13.50;13.50;;;;;;;;6376639;22;8720;-69
2023/05/29 00:15:50;;;;;;;;;12.50;12.25;;;;;;;;6375988;22;8740;-69
2023/05/29 00:18:15;;;;;;;;;16.50;14.25;;;;;;;;6348145;22;8841;-69
2023/05/29 00:20:40;;;;;;;;;9.75;9.25;;;;;;;;6376565;22;8740;-69
2023/05/29 00:23:06;;;;;;;;;10.00;10.00;;;;;;;;6376789;22;10014;-69
2023/05/29 00:25:31;;;;;;;;;8.75;8.75;;;;;;;;6375957;22;8809;-69
2023/05/29 00:27:57;;;;;;;;;13.75;9.25;;;;;;;;6375413;22;11322;-68
2023/05/29 00:30:22;;;;;;;;;17.00;12.00;;;;;;;;6376039;22;8763;-68
2023/05/29 00:32:47;;;;;;;;;13.50;11.75;;;;;;;;6376262;22;8736;-68
2023/05/29 00:35:12;;;;;;;;;12.75;12.00;;;;;;;;6376250;22;8762;-68
2023/05/29 00:37:37;;;;;;;;;12.25;9.75;;;;;;;;6376219;22;8751;-68
2023/05/29 00:40:03;;;;;;;;;12.50;11.00;;;;;;;;6376520;22;8752;-68
2023/05/29 00:42:29;;;;;;;;;12.00;11.25;;;;;;;;6375728;22;8736;-68
2023/05/29 00:44:54;;;;;;;;;14.75;12.75;;;;;;;;6376194;22;8845;-67
2023/05/29 00:47:19;;;;;;;;;10.25;10.00;;;;;;;;6376333;22;8739;-68
2023/05/29 00:49:45;;;;;;;;;9.25;9.25;;;;;;;;6376164;22;9502;-68
2023/05/29 00:52:10;;;;;;;;;10.50;9.50;;;;;;;;6376623;22;8764;-68
2023/05/29 00:54:36;;;;;;;;;13.00;9.00;;;;;;;;6375808;22;8739;-68
2023/05/29 00:57:02;;;;;;;;;12.50;12.50;;;;;;;;6375838;22;8744;-68
2023/05/29 00:59:30;;;;;;;;;8.25;7.25;;;;;;;;6375757;22;8727;-68
2023/05/29 01:01:55;;;;;;;;;10.25;10.25;;;;;;;;6375707;22;11298;-68
2023/05/29 01:04:23;;;;;;;;;10.25;10.25;;;;;;;;6375906;22;11445;-68
2023/05/29 01:06:49;;;;;;;;;10.75;7.50;;;;;;;;6375744;22;8717;-68
2023/05/29 01:09:14;;;;;;;;;11.75;11.00;;;;;;;;6375766;22;11344;-68
2023/05/29 01:11:45;;;;;;;;;10.50;9.00;;;;;;;;6376083;22;8747;-68
2023/05/29 01:14:25;;;;;;;;;8.75;8.50;;;;;;;;6375543;22;8717;-68
2023/05/29 01:17:00;;;;;;;;;12.25;11.25;;;;;;;;6374838;22;11324;-67
2023/05/29 01:19:44;;;;;;;;;10.50;9.00;;;;;;;;6375672;22;11375;-67
2023/05/29 01:22:16;;;;;;;;;10.50;10.50;;;;;;;;6375751;22;11283;-67
2023/05/29 01:24:44;;;;;;;;;14.50;11.50;;;;;;;;6375340;22;11341;-67
2023/05/29 01:27:10;;;;;;;;;12.00;10.50;;;;;;;;6376050;22;11334;-68
2023/05/29 01:29:37;;;;;;;;;11.75;10.75;;;;;;;;6374886;22;11469;-67
2023/05/29 01:32:03;;;;;;;;;7.25;6.75;;;;;;;;6375518;22;8720;-68
2023/05/29 01:34:28;;;;;;;;;7.00;7.00;;;;;;;;6376046;22;11344;-69
2023/05/29 01:36:53;;;;;;;;;12.75;12.75;;;;;;;;6376178;22;8760;-68
2023/05/29 01:39:19;;;;;;;;;11.25;10.75;;;;;;;;6375697;22;8876;-70
2023/05/29 01:41:45;;;;;;;;;9.75;9.75;;;;;;;;6375753;22;8744;-69
2023/05/29 01:44:12;;;;;;;;;10.50;10.00;;;;;;;;6375896;22;8728;-70
2023/05/29 01:46:37;;;;;;;;;8.75;8.75;;;;;;;;6375374;22;11339;-69
2023/05/29 01:49:03;;;;;;;;;14.75;8.50;;;;;;;;6376191;22;11330;-70
2023/05/29 01:51:28;;;;;;;;;7.00;6.25;;;;;;;;6375690;22;8751;-69
2023/05/29 01:53:53;;;;;;;;;10.25;9.00;;;;;;;;6375380;22;8777;-68
2023/05/29 01:56:19;;;;;;;;;11.75;11.75;;;;;;;;6375644;22;8735;-69
2023/05/29 01:58:45;;;;;;;;;10.75;9.50;;;;;;;;6375829;22;8720;-70
2023/05/29 02:01:10;;;;;;;;;11.00;10.50;;;;;;;;6375427;22;8776;-69
2023/05/29 02:03:36;;;;;;;;;15.00;11.75;;;;;;;;6375345;22;8752;-67
2023/05/29 02:06:01;;;;;;;;;11.75;10.00;;;;;;;;6375730;22;8763;-67
2023/05/29 02:08:26;;;;;;;;;13.00;12.25;;;;;;;;6375808;22;8836;-69
2023/05/29 02:10:52;;;;;;;;;13.00;11.25;;;;;;;;6375859;22;8844;-69
2023/05/29 02:13:17;;;;;;;;;8.00;8.00;;;;;;;;6375747;22;8859;-70
2023/05/29 02:15:42;;;;;;;;;10.50;10.00;;;;;;;;6375665;22;8751;-69
2023/05/29 02:18:13;;;;;;;;;10.25;9.00;;;;;;;;6375454;22;8740;-70
2023/05/29 02:20:38;;;;;;;;;13.50;10.75;;;;;;;;6375651;22;8763;-70
2023/05/29 02:23:03;;;;;;;;;12.75;11.50;;;;;;;;6375044;22;11481;-70
2023/05/29 02:25:29;;;;;;;;;10.00;8.75;;;;;;;;6376009;22;8766;-70
2023/05/29 02:27:54;;;;;;;;;11.75;11.00;;;;;;;;6374966;22;8850;-69
2023/05/29 02:30:19;;;;;;;;;15.00;13.25;;;;;;;;6375898;22;8744;-69
2023/05/29 02:32:45;;;;;;;;;12.50;10.75;;;;;;;;6375337;22;8858;-70
2023/05/29 02:35:10;;;;;;;;;11.50;9.25;;;;;;;;6375975;22;8738;-70
2023/05/29 02:37:35;;;;;;;;;14.00;12.25;;;;;;;;6375476;22;11414;-70
2023/05/29 02:40:01;;;;;;;;;11.25;11.25;;;;;;;;6375947;22;9536;-69
2023/05/29 02:42:26;;;;;;;;;14.00;14.00;;;;;;;;6375865;22;8759;-70
2023/05/29 02:44:51;;;;;;;;;14.75;14.00;;;;;;;;6374954;22;8752;-69
2023/05/29 02:47:16;;;;;;;;;14.25;10.25;;;;;;;;6375407;22;8788;-69
2023/05/29 02:49:41;;;;;;;;;11.75;11.25;;;;;;;;6375675;22;8748;-69
2023/05/29 02:52:07;;;;;;;;;9.80;9.80;;;;;;;;6347357;22;8850;-69
2023/05/29 02:54:32;;;;;;;;;13.75;11.75;;;;;;;;6375665;22;8739;-69
2023/05/29 02:56:57;;;;;;;;;17.50;15.75;;;;;;;;6375560;22;8764;-69
2023/05/29 02:59:22;;;;;;;;;15.50;11.75;;;;;;;;6375491;22;9616;-69
2023/05/29 03:01:48;;;;;;;;;14.50;11.50;;;;;;;;6375743;22;8740;-69
2023/05/29 03:04:13;;;;;;;;;11.00;10.00;;;;;;;;6347169;22;8735;-69
2023/05/29 03:06:39;;;;;;;;;17.25;12.00;;;;;;;;6375541;22;8854;-69
2023/05/29 03:09:07;;;;;;;;;13.75;11.75;;;;;;;;6375221;22;8760;-69
2023/05/29 03:11:34;;;;;;;;;11.25;11.00;;;;;;;;6375362;22;8755;-70
2023/05/29 03:13:59;;;;;;;;;17.50;14.00;;;;;;;;6375174;22;11358;-69
2023/05/29 03:16:25;;;;;;;;;10.25;10.25;;;;;;;;6375466;22;12114;-69
2023/05/29 03:18:50;;;;;;;;;14.50;11.50;;;;;;;;6375655;22;8736;-69
2023/05/29 03:21:15;;;;;;;;;16.75;10.75;;;;;;;;6375096;22;8850;-69
2023/05/29 03:23:40;;;;;;;;;15.25;14.75;;;;;;;;6375057;22;9599;-69
2023/05/29 03:26:06;;;;;;;;;13.50;12.00;;;;;;;;6375234;22;8781;-69
2023/05/29 03:28:31;;;;;;;;;17.75;15.25;;;;;;;;6374024;22;8872;-69
2023/05/29 03:30:56;;;;;;;;;12.50;12.50;;;;;;;;6347151;22;8752;-69
2023/05/29 03:33:22;;;;;;;;;14.75;13.75;;;;;;;;6375483;22;8744;-69
2023/05/29 03:35:47;;;;;;;;;10.25;10.25;;;;;;;;6375499;22;8748;-69
2023/05/29 03:38:12;;;;;;;;;12.25;12.25;;;;;;;;6375131;22;8756;-69
2023/05/29 03:40:37;;;;;;;;;14.00;10.75;;;;;;;;6374469;22;8743;-69
2023/05/29 03:43:02;;;;;;;;;16.00;11.75;;;;;;;;6375175;22;8806;-69
2023/05/29 03:45:28;;;;;;;;;15.75;13.50;;;;;;;;6375126;22;8748;-69
2023/05/29 03:47:53;;;;;;;;;14.75;11.25;;;;;;;;6375254;22;8759;-70
2023/05/29 03:50:18;;;;;;;;;13.50;13.50;;;;;;;;6375544;22;9484;-69
2023/05/29 03:52:43;;;;;;;;;16.00;14.75;;;;;;;;6374773;22;8752;-70
2023/05/29 03:55:12;;;;;;;;;18.00;16.00;;;;;;;;6374842;22;9500;-69
2023/05/29 03:57:38;;;;;;;;;15.50;13.00;;;;;;;;6374643;22;8712;-69
2023/05/29 04:00:03;;;;;;;;;16.00;14.00;;;;;;;;6375051;22;12178;-69
2023/05/29 04:02:29;;;;;;;;;18.25;12.50;;;;;;;;6374447;22;8716;-70
2023/05/29 04:04:55;;;;;;;;;14.25;12.75;;;;;;;;6346479;22;8759;-67
2023/05/29 04:07:21;;;;;;;;;21.25;17.50;;;;;;;;6375047;22;8728;-69
2023/05/29 04:09:47;;;;;;;;;11.25;8.75;;;;;;;;6374981;22;11533;-69
2023/05/29 04:12:13;;;;;;;;;16.25;12.50;;;;;;;;6374989;22;12157;-69
2023/05/29 04:14:38;;;;;;;;;23.00;16.25;;;;;;;;6374769;22;8751;-69
2023/05/29 04:17:03;;;;;;;;;17.40;17.00;;;;;;;;6375226;22;11473;-69
2023/05/29 04:19:29;;;;;;;;;16.75;15.75;;;;;;;;6374947;22;8775;-69
2023/05/29 04:21:54;;;;;;;;;18.00;17.25;;;;;;;;6374632;22;8833;-69
2023/05/29 04:24:19;;;;;;;;;16.75;15.50;;;;;;;;6374679;22;8756;-69
2023/05/29 04:26:45;;;;;;;;;20.75;16.75;;;;;;;;6374535;22;8720;-69
2023/05/29 04:29:12;;;;;;;;;20.25;18.50;;;;;;;;6373624;22;8821;-70
2023/05/29 04:31:37;;;;;;;;;18.00;15.50;;;;;;;;6374282;22;9512;-70
2023/05/29 04:34:04;;;;;;;;;21.75;17.50;;;;;;;;6374227;22;11446;-70
2023/05/29 04:36:32;;;;;;;;;19.50;18.00;;;;;;;;6374584;22;8716;-70
2023/05/29 04:38:58;;;;;;;;;17.00;14.25;;;;;;;;6374331;22;11426;-70
2023/05/29 04:41:28;;;;;;;;;22.00;21.00;;;;;;;;6373908;22;11348;-69
2023/05/29 04:43:55;;;;;;;;;24.50;23.00;;;;;;;;6345747;22;12716;-69
2023/05/29 04:46:20;;;;;;;;;21.00;19.50;;;;;;;;6374107;22;11398;-69
2023/05/29 04:48:46;;;;;;;;;19.75;15.00;;;;;;;;6374393;22;11427;-69
2023/05/29 04:51:11;;;;;;;;;17.00;16.00;;;;;;;;6374902;22;8752;-69
2023/05/29 04:53:37;;;;;;;;;18.75;18.00;;;;;;;;6376111;22;8827;-69
2023/05/29 04:56:03;;;;;;;;;25.50;21.00;;;;;;;;6375556;22;9532;-70
2023/05/29 04:58:28;;;;;;;;;20.00;18.50;;;;;;;;6375622;22;11377;-70
2023/05/29 05:00:57;;;;;;;;;23.50;21.50;;;;;;;;6376638;22;8744;-69
2023/05/29 05:03:24;;;;;;;;;24.00;22.50;;;;;;;;6375885;22;8809;-69
2023/05/29 05:05:49;;;;;;;;;20.25;18.00;;;;;;;;6375739;22;11474;-69
2023/05/29 05:08:14;;;;;;;;;22.75;21.00;;;;;;;;6375887;22;11565;-69
2023/05/29 05:10:40;;;;;;;;;20.50;19.50;;;;;;;;6376103;22;8753;-69
2023/05/29 05:13:07;;;;;;;;;22.75;20.25;;;;;;;;6376095;22;8771;-69
2023/05/29 05:15:32;;;;;;;;;21.75;18.75;;;;;;;;6376036;22;8716;-70
2023/05/29 05:17:57;;;;;;;;;22.00;18.50;;;;;;;;6375960;22;11464;-70
2023/05/29 05:20:22;;;;;;;;;20.25;19.50;;;;;;;;6376321;22;8744;-69
2023/05/29 05:22:48;;;;;;;;;22.25;21.00;;;;;;;;6376106;22;8744;-69
2023/05/29 05:25:13;;;;;;;;;16.00;16.00;;;;;;;;6376374;22;8844;-69
2023/05/29 05:27:39;;;;;;;;;22.25;19.50;;;;;;;;6375507;22;8770;-70
2023/05/29 05:30:04;;;;;;;;;18.50;16.00;;;;;;;;6375917;22;8748;-69
2023/05/29 05:32:29;;;;;;;;;29.75;25.25;;;;;;;;6375537;22;8813;-69
2023/05/29 05:34:54;;;;;;;;;19.25;16.25;;;;;;;;6375702;22;8816;-70
2023/05/29 05:37:23;;;;;;;;;21.75;20.25;;;;;;;;6376096;22;9527;-70
2023/05/29 05:39:48;;;;;;;;;21.25;19.75;;;;;;;;6375504;22;8778;-69
2023/05/29 05:42:13;;;;;;;;;21.50;19.00;;;;;;;;6375871;22;12271;-69
2023/05/29 05:44:38;;;;;;;;;20.50;18.00;;;;;;;;6375923;22;8847;-69
2023/05/29 05:47:03;;;;;;;;;21.75;21.50;;;;;;;;6375809;22;9492;-70
2023/05/29 05:49:29;;;;;;;;;12.75;11.50;;;;;;;;6376127;22;8739;-69
2023/05/29 05:51:54;;;;;;;;;15.75;15.50;;;;;;;;6375751;22;8767;-69
2023/05/29 05:54:19;;;;;;;;;16.25;16.25;;;;;;;;6375868;22;8739;-69
2023/05/29 05:56:44;;;;;;;;;20.00;19.50;;;;;;;;6375583;22;9635;-69
2023/05/29 05:59:10;;;;;;;;;20.25;20.25;;;;;;;;6376067;22;8786;-69
2023/05/29 06:01:36;;;;;;;;;20.00;18.50;;;;;;;;6375834;22;8759;-69
2023/05/29 06:04:01;;;;;;;;;21.75;20.25;;;;;;;;6375774;22;8732;-70
2023/05/29 06:06:26;;;;;;;;;19.00;17.75;;;;;;;;6376353;22;8766;-70
2023/05/29 06:08:52;;;;;;;;;26.75;21.75;;;;;;;;6375670;22;8775;-70
2023/05/29 06:11:17;;;;;;;;;24.25;22.00;;;;;;;;6376244;22;8735;-69
2023/05/29 06:13:42;;;;;;;;;27.00;24.75;;;;;;;;6347612;22;8767;-69
2023/05/29 06:16:07;;;;;;;;;24.25;22.75;;;;;;;;6375946;22;8841;-69
2023/05/29 06:18:33;;;;;;;;;22.75;21.25;;;;;;;;6375746;22;8732;-69
2023/05/29 06:20:58;;;;;;;;;17.25;15.50;;;;;;;;6375544;22;9497;-70
2023/05/29 06:23:23;;;;;;;;;15.75;15.75;;;;;;;;6375622;22;8795;-69
2023/05/29 06:25:49;;;;;;;;;19.25;19.25;;;;;;;;6375709;22;8805;-70
2023/05/29 06:28:14;;;;;;;;;23.25;22.25;;;;;;;;6375066;22;8782;-70
2023/05/29 06:30:39;;;;;;;;;27.00;22.75;;;;;;;;6375553;22;8801;-69
2023/05/29 06:33:05;;;;;;;;;19.00;18.00;;;;;;;;6375488;22;8740;-70
2023/05/29 06:35:30;;;;;;;;;21.00;18.50;;;;;;;;6375875;22;8736;-69
2023/05/29 06:37:55;;;;;;;;;22.00;19.75;;;;;;;;6375194;22;9780;-69
2023/05/29 06:40:21;;;;;;;;;11.25;11.00;;;;;;;;6347525;22;8969;-69
2023/05/29 06:42:46;;;;;;;;;18.25;16.50;;;;;;;;6347566;22;8748;-74
2023/05/29 06:45:13;;;;;;;;;17.25;15.00;;;;;;;;6347243;22;8767;-69
2023/05/29 06:47:38;;;;;;;;;20.50;19.50;;;;;;;;6375511;22;8814;-70
2023/05/29 06:50:04;;;;;;;;;23.75;20.75;;;;;;;;6375618;22;11363;-69
2023/05/29 06:52:29;;;;;;;;;21.25;21.00;;;;;;;;6375196;22;8756;-70
2023/05/29 06:54:55;;;;;;;;;23.75;22.50;;;;;;;;6375569;22;8781;-69
2023/05/29 06:57:20;;;;;;;;;19.25;15.00;;;;;;;;6375731;22;8822;-70
2023/05/29 06:59:45;;;;;;;;;23.00;21.75;;;;;;;;6375365;22;8748;-75
2023/05/29 07:02:10;;;;;;;;;22.00;20.50;;;;;;;;6375727;22;8756;-71
2023/05/29 07:04:35;;;;;;;;;15.25;13.50;;;;;;;;6375509;22;8732;-69
2023/05/29 07:07:01;;;;;;;;;11.50;10.50;;;;;;;;6375249;22;9505;-70
2023/05/29 07:09:27;;;;;;;;;22.00;21.75;;;;;;;;6375752;22;8731;-70
2023/05/29 07:11:52;;;;;;;;;18.50;17.50;;;;;;;;6375150;22;8767;-70
2023/05/29 07:14:17;;;;;;;;;18.00;18.00;;;;;;;;6374295;22;11384;-70
2023/05/29 07:16:43;;;;;;;;;20.50;20.00;;;;;;;;6375100;22;8740;-70
2023/05/29 07:19:08;;;;;;;;;21.25;20.25;;;;;;;;6375499;22;8835;-69
2023/05/29 07:21:33;;;;;;;;;13.00;13.00;;;;;;;;6375176;22;9571;-70
2023/05/29 07:23:59;;;;;;;;;18.50;17.25;;;;;;;;6375068;22;8862;-70
2023/05/29 07:26:25;;;;;;;;;20.25;19.50;;;;;;;;6346786;22;8764;-70
2023/05/29 07:28:50;;;;;;;;;25.25;21.75;;;;;;;;6374306;22;8724;-70
2023/05/29 07:31:15;;;;;;;;;22.75;22.50;;;;;;;;6375431;22;12277;-69
2023/05/29 07:33:41;;;;;;;;;20.00;19.50;;;;;;;;6374848;22;8744;-72
2023/05/29 07:36:07;;;;;;;;;29.00;26.25;;;;;;;;6375281;22;8744;-71
2023/05/29 07:38:32;;;;;;;;;23.50;22.75;;;;;;;;6346532;22;9238;-70
2023/05/29 07:40:58;;;;;;;;;23.00;21.75;;;;;;;;6375468;22;8752;-71
2023/05/29 07:43:23;;;;;;;;;26.75;22.75;;;;;;;;6374894;22;8778;-70
2023/05/29 07:45:48;;;;;;;;;22.25;20.00;;;;;;;;6375189;22;8739;-70
2023/05/29 07:48:14;;;;;;;;;26.75;25.00;;;;;;;;6375139;22;8724;-70
2023/05/29 07:50:39;;;;;;;;;23.00;18.75;;;;;;;;6374263;22;8774;-70
2023/05/29 07:53:04;;;;;;;;;21.50;21.50;;;;;;;;6374643;22;9706;-71
2023/05/29 07:55:30;;;;;;;;;16.50;13.75;;;;;;;;6374949;22;8768;-71
2023/05/29 07:57:55;;;;;;;;;23.25;22.25;;;;;;;;6375321;22;8752;-70
2023/05/29 08:00:20;;;;;;;;;19.75;18.50;;;;;;;;6375169;22;8786;-70
2023/05/29 08:02:46;;;;;;;;;22.75;22.50;;;;;;;;6374496;22;8740;-69
2023/05/29 08:05:12;;;;;;;;;28.50;26.50;;;;;;;;6375351;22;8740;-69
2023/05/29 08:07:37;;;;;;;;;26.25;24.00;;;;;;;;6375147;22;8708;-68
2023/05/29 08:10:05;;;;;;;;;19.75;18.25;;;;;;;;6374667;22;11470;-71
2023/05/29 08:12:30;;;;;;;;;25.00;21.50;;;;;;;;6374176;22;8741;-68
2023/05/29 08:14:55;;;;;;;;;24.50;22.75;;;;;;;;6375064;22;11428;-69
2023/05/29 08:17:20;;;;;;;;;28.00;26.00;;;;;;;;6374983;22;8743;-72
2023/05/29 08:19:46;;;;;;;;;31.50;28.00;;;;;;;;6375128;22;8795;-70
2023/05/29 08:22:13;;;;;;;;;25.25;25.25;;;;;;;;6375424;22;8716;-69
2023/05/29 08:24:38;;;;;;;;;29.00;27.50;;;;;;;;6374968;22;8740;-73
2023/05/29 08:27:04;;;;;;;;;31.25;27.50;;;;;;;;6347407;22;11499;-73
2023/05/29 08:29:29;;;;;;;;;22.00;21.25;;;;;;;;6376072;22;8768;-73
2023/05/29 08:31:54;;;;;;;;;26.00;23.00;;;;;;;;6376149;22;8732;-75
2023/05/29 08:34:20;;;;;;;;;25.50;23.75;;;;;;;;6376487;22;8859;-75
2023/05/29 08:36:45;;;;;;;;;24.00;23.25;;;;;;;;6375614;22;8748;-74
2023/05/29 08:39:10;;;;;;;;;27.25;26.75;;;;;;;;6376748;22;8777;-74
2023/05/29 08:41:42;;;;;;;;;23.50;23.00;;;;;;;;6376182;22;8740;-74
2023/05/29 08:44:07;;;;;;;;;25.00;22.50;;;;;;;;6374985;22;9537;-73
2023/05/29 08:46:33;;;;;;;;;19.75;16.50;;;;;;;;6347630;22;11463;-77
2023/05/29 08:49:00;;;;;;;;;23.25;19.00;;;;;;;;6348117;22;8779;-78
2023/05/29 08:51:31;;;;;;;;;26.75;25.25;;;;;;;;6376171;22;8763;-77
2023/05/29 08:53:56;;;;;;;;;29.00;28.75;;;;;;;;6347784;22;11345;-73
2023/05/29 08:56:22;;;;;;;;;23.50;19.50;;;;;;;;6376371;22;11444;-69
2023/05/29 08:58:47;;;;;;;;;20.00;20.00;;;;;;;;6375992;22;8785;-68
2023/05/29 09:01:12;;;;;;;;;28.50;26.75;;;;;;;;6376315;22;8804;-69
2023/05/29 09:03:38;;;;;;;;;18.75;17.75;;;;;;;;6376445;22;8798;-68
2023/05/29 09:06:03;;;;;;;;;23.50;21.75;;;;;;;;6375961;22;8732;-68
2023/05/29 09:08:29;;;;;;;;;15.00;14.00;;;;;;;;6376079;22;8740;-69
2023/05/29 09:10:55;;;;;;;;;27.25;25.00;;;;;;;;6376284;22;8712;-68
2023/05/29 09:13:20;;;;;;;;;18.75;16.50;;;;;;;;6375958;22;11391;-68
2023/05/29 09:15:46;;;;;;;;;30.75;26.75;;;;;;;;6376234;22;8862;-68
2023/05/29 09:18:11;;;;;;;;;24.00;21.75;;;;;;;;6376318;22;8765;-66
2023/05/29 09:20:36;;;;;;;;;20.00;19.25;;;;;;;;6376425;22;8740;-67
2023/05/29 09:23:03;;;;;;;;;20.00;19.00;;;;;;;;6376072;22;8771;-67
2023/05/29 09:25:31;;;;;;;;;21.25;19.50;;;;;;;;6376171;22;8746;-69
2023/05/29 09:27:59;;;;;;;;;22.00;18.75;;;;;;;;6374611;22;11404;-68
2023/05/29 09:30:35;;;;;;;;;19.75;19.00;;;;;;;;6373561;22;11453;-68
2023/05/29 09:33:00;;;;;;;;;31.00;27.25;;;;;;;;6374163;22;11446;-68
2023/05/29 09:35:27;;;;;;;;;20.00;18.50;;;;;;;;6373732;22;11438;-68
2023/05/29 09:37:52;;;;;;;;;26.75;25.00;;;;;;;;6373779;22;8712;-68
2023/05/29 09:40:17;;;;;;;;;27.75;26.00;;;;;;;;6373871;22;11384;-68
2023/05/29 09:42:42;;;;;;;;;24.75;24.25;;;;;;;;6374102;22;8740;-68
2023/05/29 09:45:08;;;;;;;;;21.50;21.50;;;;;;;;6345246;22;8882;-67
2023/05/29 09:47:34;;;;;;;;;25.00;20.50;;;;;;;;6373706;22;8724;-66
2023/05/29 09:50:00;;;;;;;;;25.25;23.75;;;;;;;;6373539;22;8838;-67
2023/05/29 09:52:25;;;;;;;;;24.25;23.00;;;;;;;;6373891;22;8732;-67
2023/05/29 09:54:51;;;;;;;;;20.75;19.75;;;;;;;;6373289;22;11413;-66
2023/05/29 09:57:17;;;;;;;;;28.75;24.75;;;;;;;;6373672;22;8770;-66
2023/05/29 09:59:48;;;;;;;;;26.25;26.25;;;;;;;;6373501;22;8748;-66
2023/05/29 10:02:15;;;;;;;;;25.25;24.25;;;;;;;;6373812;22;8696;-67
2023/05/29 10:04:40;;;;;;;;;24.25;23.50;;;;;;;;6345208;22;11381;-67
2023/05/29 10:07:11;;;;;;;;;30.50;26.25;;;;;;;;6373418;22;12572;-67
2023/05/29 10:09:41;;;;;;;;;24.50;24.50;;;;;;;;6373498;22;8735;-67
2023/05/29 10:12:07;;;;;;;;;19.50;19.00;;;;;;;;6373911;22;12140;-67
2023/05/29 10:14:33;;;;;;;;;32.25;25.75;;;;;;;;6373578;22;12278;-67
2023/05/29 10:17:01;;;;;;;;;26.50;24.00;;;;;;;;6373431;22;11389;-67
2023/05/29 10:19:29;;;;;;;;;29.50;23.00;;;;;;;;6373458;22;8766;-67
2023/05/29 10:21:55;;;;;;;;;26.25;24.50;;;;;;;;6372912;22;11363;-67
2023/05/29 10:24:21;;;;;;;;;19.25;17.25;;;;;;;;6372907;22;11375;-67
2023/05/29 10:26:48;;;;;;;;;18.75;18.75;;;;;;;;6373045;22;11364;-67
2023/05/29 10:29:20;;;;;;;;;20.25;20.25;;;;;;;;6298447;22;1080063;-67
2023/05/29 10:32:01;;;;;;;;;20.00;18.75;;;;;;;;6347180;22;8868;-67
2023/05/29 10:34:37;;;;;;;;;22.75;22.75;;;;;;;;6375529;22;11496;-67
2023/05/29 10:37:20;;;;;;;;;19.00;17.25;;;;;;;;6375344;22;11380;-68
2023/05/29 10:39:46;;;;;;;;;21.00;17.00;;;;;;;;6375683;22;11363;-68
2023/05/29 10:42:40;;;;;;;;;24.50;19.75;;;;;;;;6374852;22;11383;-67
2023/05/29 10:45:05;;;;;;;;;20.75;18.25;;;;;;;;6375000;22;9100;-69
2023/05/29 10:47:30;;;;;;;;;21.00;17.50;;;;;;;;6375243;22;11458;-68
2023/05/29 10:50:00;;;;;;;;;19.25;18.50;;;;;;;;6375524;22;9825;-68
2023/05/29 10:52:25;;;;;;;;;21.00;19.25;;;;;;;;6375517;22;8704;-69
2023/05/29 10:54:52;;;;;;;;;15.75;15.00;;;;;;;;6375344;22;12285;-68
2023/05/29 10:57:17;;;;;;;;;19.50;16.75;;;;;;;;6375142;22;8803;-69
2023/05/29 10:59:44;;;;;;;;;18.00;16.50;;;;;;;;6375391;22;11489;-68
2023/05/29 11:02:10;;;;;;;;;14.00;13.25;;;;;;;;6375608;22;8720;-66
2023/05/29 11:04:36;;;;;;;;;19.50;17.00;;;;;;;;6375120;22;12116;-67
2023/05/29 11:07:05;;;;;;;;;18.25;16.75;;;;;;;;6375155;22;8728;-68
2023/05/29 11:09:34;;;;;;;;;18.00;17.75;;;;;;;;6375045;22;11372;-68
2023/05/29 11:12:25;;;;;;;;;22.00;18.75;;;;;;;;6374600;22;11354;-73
2023/05/29 11:14:57;;;;;;;;;20.00;19.00;;;;;;;;6375341;22;11367;-70
2023/05/29 11:17:37;;;;;;;;;18.75;15.75;;;;;;;;6375156;22;11377;-69
2023/05/29 11:20:07;;;;;;;;;15.50;15.50;;;;;;;;6375369;22;11365;-69
2023/05/29 11:22:51;;;;;;;;;18.50;18.25;;;;;;;;6374825;22;11311;-68
2023/05/29 11:25:16;;;;;;;;;18.00;15.75;;;;;;;;6375050;22;11397;-71
2023/05/29 11:27:43;;;;;;;;;15.00;13.50;;;;;;;;6374913;22;12143;-70
2023/05/29 11:30:09;;;;;;;;;17.75;17.75;;;;;;;;6375530;22;8736;-69
2023/05/29 11:32:36;;;;;;;;;19.00;16.00;;;;;;;;6374934;22;11474;-71
2023/05/29 11:35:05;;;;;;;;;17.75;15.75;;;;;;;;6375169;22;8739;-69
2023/05/29 11:37:32;;;;;;;;;17.75;16.75;;;;;;;;6375100;22;11416;-70
2023/05/29 11:39:57;;;;;;;;;22.00;18.50;;;;;;;;6374794;22;11383;-70
2023/05/29 11:42:22;;;;;;;;;26.50;21.00;;;;;;;;6374943;22;11381;-70
2023/05/29 11:44:47;;;;;;;;;17.25;15.50;;;;;;;;6374991;22;8751;-72
2023/05/29 11:47:14;;;;;;;;;18.50;18.50;;;;;;;;6375100;22;8783;-70
2023/05/29 11:49:40;;;;;;;;;13.50;13.00;;;;;;;;6375184;22;8784;-69
2023/05/29 11:52:06;;;;;;;;;20.25;20.25;;;;;;;;6375130;22;11388;-69
2023/05/29 11:54:32;;;;;;;;;19.00;17.00;;;;;;;;6374644;22;8728;-69
2023/05/29 11:56:57;;;;;;;;;21.00;21.00;;;;;;;;6346066;22;11381;-68
2023/05/29 11:59:22;;;;;;;;;17.50;16.50;;;;;;;;6375124;22;11372;-69
2023/05/29 12:01:48;;;;;;;;;23.75;19.75;;;;;;;;6376003;22;8744;-69
2023/05/29 12:04:13;;;;;;;;;14.00;12.25;;;;;;;;6376013;22;8780;-68
2023/05/29 12:06:39;;;;;;;;;10.00;8.00;;;;;;;;6376047;22;8771;-68
2023/05/29 12:09:05;;;;;;;;;12.25;10.50;;;;;;;;6376517;22;8728;-69
2023/05/29 12:11:30;;;;;;;;;15.75;11.75;;;;;;;;6376223;22;8763;-69
2023/05/29 12:13:59;;;;;;;;;14.00;13.00;;;;;;;;6376345;22;8794;-69
2023/05/29 12:16:25;;;;;;;;;5.25;4.25;;;;;;;;6376005;22;8737;-69
2023/05/29 12:18:51;;;;;;;;;13.25;11.25;;;;;;;;6347517;22;10957;-70
2023/05/29 12:21:16;;;;;;;;;9.25;8.25;;;;;;;;6376440;22;11371;-73
2023/05/29 12:23:41;;;;;;;;;9.25;7.25;;;;;;;;6376721;22;8764;-69
2023/05/29 12:26:07;;;;;;;;;9.75;7.50;;;;;;;;6376280;22;8752;-70
2023/05/29 12:28:32;;;;;;;;;8.25;7.75;;;;;;;;6374689;22;8798;-70
2023/05/29 12:30:58;;;;;;;;;11.50;8.25;;;;;;;;6375803;22;8744;-69
2023/05/29 12:33:30;;;;;;;;;11.25;9.00;;;;;;;;6375235;22;8731;-69
2023/05/29 12:36:02;;;;;;;;;8.25;5.75;;;;;;;;6375566;22;11053;-69
2023/05/29 12:38:27;;;;;;;;;10.00;8.75;;;;;;;;6375510;22;10950;-69
2023/05/29 12:40:53;;;;;;;;;9.50;9.50;;;;;;;;6375397;22;11593;-69
2023/05/29 12:43:18;;;;;;;;;9.25;9.25;;;;;;;;6376114;22;8778;-69
2023/05/29 12:45:44;;;;;;;;;10.50;8.50;;;;;;;;6376288;22;11067;-68
2023/05/29 12:48:10;;;;;;;;;6.00;5.50;;;;;;;;6376053;22;9329;-69
2023/05/29 12:50:38;;;;;;;;;8.50;6.00;;;;;;;;6375668;22;8717;-68
2023/05/29 12:53:05;;;;;;;;;9.25;8.00;;;;;;;;6347774;22;10948;-69
2023/05/29 12:55:36;;;;;;;;;15.50;13.00;;;;;;;;6375678;22;10701;-69
2023/05/29 12:58:01;;;;;;;;;16.25;16.00;;;;;;;;6375659;22;10827;-69
2023/05/29 13:00:27;;;;;;;;;10.00;8.50;;;;;;;;6375513;22;11219;-69
2023/05/29 13:02:52;;;;;;;;;7.00;5.50;;;;;;;;6376165;22;8760;-68
2023/05/29 13:05:18;;;;;;;;;10.50;5.00;;;;;;;;6376155;22;8760;-68
2023/05/29 13:07:44;;;;;;;;;6.25;6.25;;;;;;;;6375731;22;8748;-69
2023/05/29 13:10:09;;;;;;;;;6.50;5.50;;;;;;;;6375938;22;10837;-69
2023/05/29 13:12:35;;;;;;;;;5.50;5.50;;;;;;;;6375431;22;8766;-69
2023/05/29 13:15:00;;;;;;;;;8.00;8.00;;;;;;;;6375594;22;9553;-69
2023/05/29 13:17:25;;;;;;;;;7.00;5.50;;;;;;;;6376428;22;8759;-69
2023/05/29 13:19:50;;;;;;;;;9.75;6.50;;;;;;;;6375928;22;8762;-69
2023/05/29 13:22:16;;;;;;;;;6.00;5.25;;;;;;;;6375966;22;8751;-69
2023/05/29 13:24:41;;;;;;;;;5.25;5.25;;;;;;;;6375959;22;8882;-69
2023/05/29 13:27:07;;;;;;;;;6.75;6.75;;;;;;;;6376421;22;8724;-68
2023/05/29 13:29:32;;;;;;;;;5.75;5.75;;;;;;;;6374969;22;8760;-68
2023/05/29 13:31:57;;;;;;;;;10.00;7.25;;;;;;;;6376157;22;8780;-69
2023/05/29 13:34:25;;;;;;;;;7.50;5.75;;;;;;;;6375729;22;8760;-69
2023/05/29 13:36:50;;;;;;;;;8.25;4.50;;;;;;;;6375365;22;8720;-69
2023/05/29 13:39:15;;;;;;;;;8.50;7.00;;;;;;;;6376023;22;10765;-69
2023/05/29 13:41:40;;;;;;;;;5.25;5.25;;;;;;;;6376328;22;9481;-69
2023/05/29 13:44:06;;;;;;;;;5.50;5.50;;;;;;;;6375916;22;8767;-69
2023/05/29 13:46:31;;;;;;;;;5.50;5.00;;;;;;;;6376041;22;8786;-70
2023/05/29 13:48:56;;;;;;;;;4.25;4.00;;;;;;;;6375920;22;9527;-69
2023/05/29 13:51:21;;;;;;;;;7.50;5.50;;;;;;;;6375960;22;8754;-69
2023/05/29 13:53:46;;;;;;;;;7.00;7.00;;;;;;;;6376171;22;8764;-69
2023/05/29 13:56:11;;;;;;;;;7.25;6.00;;;;;;;;6375080;22;9523;-68
2023/05/29 13:58:37;;;;;;;;;8.00;6.25;;;;;;;;6376405;22;8773;-68
2023/05/29 14:01:02;;;;;;;;;1.00;1.00;;;;;;;;6375842;22;8743;-68
2023/05/29 14:03:28;;;;;;;;;8.75;5.00;;;;;;;;6375623;22;8793;-68
2023/05/29 14:05:54;;;;;;;;;8.75;6.50;;;;;;;;6374941;22;8740;-68
2023/05/29 14:08:19;;;;;;;;;6.75;6.75;;;;;;;;6375523;22;11057;-68
2023/05/29 14:10:44;;;;;;;;;6.25;6.25;;;;;;;;6376199;22;8748;-68
2023/05/29 14:13:10;;;;;;;;;5.75;5.00;;;;;;;;6375960;22;8748;-69
2023/05/29 14:15:35;;;;;;;;;2.00;2.00;;;;;;;;6375973;22;8763;-69
2023/05/29 14:18:02;;;;;;;;;7.50;7.50;;;;;;;;6376048;22;8747;-69
2023/05/29 14:20:27;;;;;;;;;5.50;4.00;;;;;;;;6375282;22;8754;-69
2023/05/29 14:22:52;;;;;;;;;4.75;4.75;;;;;;;;6375172;22;10581;-68
2023/05/29 14:25:17;;;;;;;;;8.25;4.75;;;;;;;;6375557;22;8763;-68